Main page


Airports :

Sleipner, Norway

Oil platform

latitude: 58-22-00N, longitude: 001-54-25E, elevation: 50 m

Current weather observation

The report was made 28 minutes ago, at 05:50 UTC
Wind 17 kt from the North
Temperature 5°C
Humidity 52%
Pressure 1025 hPa
Visibility 10 km or more

METAR: ENSL 200550Z AUTO 36017KT 9999NDV OVC038/// 05/M04 Q1025 W03/S5

Time: 07:18 (06:18 UTC)


The report was made 16 hours and 18 minutes ago, at 14:00 UTC
Forecast valid from 19 at 15 UTC to 19 at 18 UTC
Wind 30 kt from the North/Northwest
Visibility 10 km or more
Few clouds at a height of 1500 ft
from 19 at 15 UTC to 19 at 18 UTC
Broken clouds at a height of 1200 ft
rain showers

TAF: ENSL 191400Z 1915/1918 34030KT 9999 FEW015 TEMPO 1915/1918 SHRA BKN012

Weather observations and forecasts of more than 4000 airports (METAR and TAF reports).

The available stations are represented by yellow and red dots on the map.

Hover mouse over dot to see the name of the station.

Then click to see weather observations and forecasts.

To change the map : click on the green buttons with a black cross to zoom in, on the green button with a dash to zoom out, or on the green arrows for adjacent maps.